Decoded Metar for KMHT (MANCHESTER in NH, USA) (IATA:MHT) | Meteo·Mobile Aviation Weather
aviador You're here:

KMHT Decoded Metar

MANCHESTER in NH, USA
Report Time2018-09-21 11:53:00
UTC Time2018-09-21 12:33:29
Flight Rules vfr VFR
Wind170° at 05 kt
W.Decomp.*RWY 17: 4.8 kt HW 1.4 kt RCW
RWY 24: 2.9 kt HW 4 kt LCW
W.Rank170° ranks 7
Current wind is below 170° avg. (6.1)
Visibility9999 m
Phenomena:N/A
Clouds:Overcast 042 Hf
Expected CloudBase > 1,200 ft AGL from Temp-Dew spread
Ceiling4,200 ft
Temp16°C (ISA +2)
Dew Point13°C (83% RH)
AAT15.2°C
QNH1026 hPa
Density Alt210 ft
Elevation266 ft
Report Wrong Elevation
Raw Report
KMHT 211153Z 17005KT 10SM OVC042 16/13 A3029 RMK AO2 SLP268
T01560128 10156 20150 53003=

Extra information for KMHT:More info

Metar Taf Metar & Taf Last 4 Metars F.Rules Stats Wind Profile Meteogram Temp Stats Airport Information Weather charts Add Link Nearby VenuesMetar ALERT Operation Metar Decoded Social comments

AIRNAV info for KMHT